Time;durP1;ratioP1;P1;durP2;ratioP2;P2;SDS_P1;SDS_P2;PMS_P1;PMS_P2;Temp;Humidity;BMP_temperature;BMP_pressure;BME280_temperature;BME280_humidity;BME280_pressure;Samples;Min_cycle;Max_cycle;Signal;HPM_P1;HPM_P2
2024/03/20 00:02:10;;;;;;;12.05;4.53;;;10.50;99.90;;;;;;4959600;29;20053;-85
2024/03/20 00:04:36;;;;;;;9.23;4.22;;;10.40;99.90;;;;;;4954020;29;20039;-86
2024/03/20 00:07:03;;;;;;;12.13;4.80;;;10.40;99.90;;;;;;4947371;29;20122;-85
2024/03/20 00:09:30;;;;;;;12.77;4.75;;;10.40;99.90;;;;;;4957691;29;20130;-85
2024/03/20 00:11:56;;;;;;;10.25;4.20;;;10.40;99.90;;;;;;4957777;29;20035;-85
2024/03/20 00:14:23;;;;;;;10.15;4.15;;;10.30;99.90;;;;;;4958195;29;20043;-85
2024/03/20 00:16:50;;;;;;;9.13;4.63;;;10.30;99.90;;;;;;4957884;29;20046;-85
2024/03/20 00:19:16;;;;;;;8.80;4.35;;;10.20;99.90;;;;;;4973788;29;20523;-85
2024/03/20 00:21:43;;;;;;;11.88;4.50;;;10.10;99.90;;;;;;4957837;29;20039;-85
2024/03/20 00:24:09;;;;;;;13.07;4.43;;;10.10;99.90;;;;;;4957882;29;20047;-85
2024/03/20 00:26:39;;;;;;;11.77;3.90;;;10.00;99.90;;;;;;4957729;29;20047;-85
2024/03/20 00:29:06;;;;;;;12.48;4.78;;;10.10;99.90;;;;;;4968821;29;20032;-85
2024/03/20 00:31:32;;;;;;;10.48;4.28;;;10.10;99.90;;;;;;4957620;29;20058;-85
2024/03/20 00:33:59;;;;;;;8.18;3.88;;;10.60;99.90;;;;;;4957647;29;20396;-85
2024/03/20 00:36:26;;;;;;;7.03;3.80;;;10.10;99.90;;;;;;4954653;29;20107;-85
2024/03/20 00:38:53;;;;;;;12.73;3.53;;;10.10;99.90;;;;;;4957391;29;20050;-85
2024/03/20 00:41:19;;;;;;;12.52;4.03;;;10.10;99.90;;;;;;4957448;29;20043;-85
2024/03/20 00:43:46;;;;;;;10.73;4.03;;;10.30;99.90;;;;;;4957067;29;20055;-85
2024/03/20 00:46:13;;;;;;;9.73;3.60;;;10.10;99.90;;;;;;4957777;29;20473;-85
2024/03/20 00:48:40;;;;;;;8.95;3.95;;;10.10;99.90;;;;;;4957664;29;20086;-85
2024/03/20 00:51:06;;;;;;;10.77;3.85;;;10.10;99.90;;;;;;4954396;29;20036;-85
2024/03/20 00:53:33;;;;;;;9.27;4.22;;;10.10;99.90;;;;;;4953365;29;20110;-85
2024/03/20 00:56:00;;;;;;;9.73;3.67;;;10.10;99.90;;;;;;4956175;29;20036;-85
2024/03/20 00:58:30;;;;;;;12.98;4.38;;;10.10;99.90;;;;;;4948608;29;20039;-85
2024/03/20 01:00:57;;;;;;;11.25;3.88;;;10.40;99.90;;;;;;4952068;29;20058;-85
2024/03/20 01:03:23;;;;;;;13.45;4.10;;;10.10;99.90;;;;;;4956671;29;20093;-85
2024/03/20 01:05:50;;;;;;;10.48;4.05;;;10.10;99.90;;;;;;4956222;29;20035;-85
2024/03/20 01:08:18;;;;;;;12.27;4.07;;;10.20;99.90;;;;;;4957776;28;20505;-85
2024/03/20 01:10:45;;;;;;;11.13;4.22;;;10.10;99.90;;;;;;4960277;28;20043;-85
2024/03/20 01:13:11;;;;;;;12.98;4.80;;;10.10;99.90;;;;;;4965574;29;20054;-85
2024/03/20 01:15:38;;;;;;;9.52;4.53;;;10.20;99.90;;;;;;4961590;29;20469;-85
2024/03/20 01:18:05;;;;;;;8.85;4.40;;;10.10;99.90;;;;;;4955734;29;20085;-85
2024/03/20 01:20:31;;;;;;;9.68;4.10;;;10.10;99.90;;;;;;4956296;29;20047;-85
2024/03/20 01:22:58;;;;;;;11.02;3.92;;;10.10;99.90;;;;;;4966705;29;20046;-85
2024/03/20 01:25:25;;;;;;;10.27;4.40;;;10.20;99.90;;;;;;4960294;29;20417;-85
2024/03/20 01:27:52;;;;;;;13.00;4.20;;;10.10;99.90;;;;;;4973747;28;20039;-85
2024/03/20 01:30:18;;;;;;;11.88;4.65;;;10.20;99.90;;;;;;4958315;29;20094;-85
2024/03/20 01:32:45;;;;;;;12.18;4.63;;;10.10;99.90;;;;;;4956824;29;20039;-85
2024/03/20 01:35:12;;;;;;;10.23;4.30;;;10.10;99.90;;;;;;4955358;29;20047;-85
2024/03/20 01:37:39;;;;;;;9.00;4.45;;;10.10;99.90;;;;;;4956288;29;20043;-85
2024/03/20 01:40:07;;;;;;;12.05;4.40;;;10.30;99.90;;;;;;4966141;28;20059;-85
2024/03/20 01:42:33;;;;;;;8.25;3.58;;;10.10;99.90;;;;;;4966595;29;20047;-85
2024/03/20 01:45:14;;;;;;;9.50;4.32;;;10.40;99.90;;;;;;4972214;29;20043;-85
2024/03/20 01:47:42;;;;;;;8.70;3.72;;;10.10;99.90;;;;;;4944661;29;20035;-86
2024/03/20 01:50:09;;;;;;;9.43;4.18;;;10.10;99.90;;;;;;4948833;29;20437;-85
2024/03/20 01:52:56;;;;;;;9.20;3.92;;;10.10;99.90;;;;;;4948676;29;20031;-85
2024/03/20 01:55:23;;;;;;;9.13;3.90;;;10.20;99.90;;;;;;4948975;29;20051;-85
2024/03/20 01:57:52;;;;;;;8.27;3.90;;;10.10;99.90;;;;;;4943546;29;20150;-85
2024/03/20 02:00:23;;;;;;;9.02;4.10;;;10.50;99.90;;;;;;4962850;29;20043;-85
2024/03/20 02:02:54;;;;;;;9.32;3.70;;;10.10;99.90;;;;;;4959554;29;20047;-85
2024/03/20 02:05:20;;;;;;;8.98;3.47;;;10.20;99.90;;;;;;4953399;29;20043;-85
2024/03/20 02:07:47;;;;;;;9.48;3.80;;;10.10;99.90;;;;;;4953440;28;20046;-85
2024/03/20 02:10:14;;;;;;;10.40;4.13;;;10.50;99.90;;;;;;4968823;29;20043;-85
2024/03/20 02:12:40;;;;;;;11.68;3.88;;;10.10;99.90;;;;;;4982079;28;20035;-85
2024/03/20 02:15:09;;;;;;;11.38;3.72;;;10.50;99.90;;;;;;4964017;29;20047;-85
2024/03/20 02:17:37;;;;;;;10.15;3.97;;;10.10;99.90;;;;;;4957433;28;20497;-85
2024/03/20 02:20:05;;;;;;;13.38;4.10;;;10.30;99.90;;;;;;4965918;29;20125;-85
2024/03/20 02:22:42;;;;;;;12.88;3.67;;;10.10;99.90;;;;;;4974581;28;20050;-85
2024/03/20 02:25:10;;;;;;;12.00;4.30;;;10.10;99.90;;;;;;4967327;28;20444;-85
2024/03/20 02:27:37;;;;;;;8.45;3.70;;;10.10;99.90;;;;;;4964617;28;20131;-85
2024/03/20 02:30:09;;;;;;;9.82;3.55;;;10.10;99.90;;;;;;4971226;28;20058;-85
2024/03/20 02:32:40;;;;;;;10.48;4.07;;;10.10;99.90;;;;;;4988309;28;20554;-85
2024/03/20 02:35:07;;;;;;;16.15;4.25;;;10.00;99.90;;;;;;4972837;28;20117;-85
2024/03/20 02:37:34;;;;;;;11.43;4.20;;;10.00;99.90;;;;;;4971172;29;20047;-85
2024/03/20 02:40:00;;;;;;;9.23;4.15;;;10.00;99.90;;;;;;4989266;28;20045;-85
2024/03/20 02:42:27;;;;;;;10.25;4.07;;;10.30;99.90;;;;;;4989209;28;20480;-85
2024/03/20 02:44:54;;;;;;;8.60;3.97;;;10.10;99.90;;;;;;4962345;28;20134;-85
2024/03/20 02:47:20;;;;;;;12.98;4.15;;;10.00;99.90;;;;;;4973903;28;20496;-85
2024/03/20 02:49:47;;;;;;;12.25;4.88;;;10.00;99.90;;;;;;4975078;28;20074;-85
2024/03/20 02:52:14;;;;;;;12.63;4.13;;;10.00;99.90;;;;;;4966419;29;20090;-84
2024/03/20 02:54:41;;;;;;;11.18;4.30;;;9.90;99.90;;;;;;4963401;29;20075;-85
2024/03/20 02:57:08;;;;;;;12.68;4.40;;;10.20;99.90;;;;;;4980692;28;20460;-85
2024/03/20 02:59:34;;;;;;;11.32;4.72;;;10.00;99.90;;;;;;4968890;28;20077;-85
2024/03/20 03:02:01;;;;;;;14.00;5.13;;;10.60;99.90;;;;;;4971662;28;20101;-85
2024/03/20 03:04:27;;;;;;;11.57;4.50;;;9.80;99.90;;;;;;4974306;29;20058;-85
2024/03/20 03:06:54;;;;;;;14.18;5.15;;;9.80;99.90;;;;;;4973142;28;20035;-84
2024/03/20 03:09:21;;;;;;;11.57;5.30;;;10.10;99.90;;;;;;4974417;28;20133;-85
2024/03/20 03:11:49;;;;;;;11.00;5.18;;;9.80;99.90;;;;;;4967362;29;20043;-85
2024/03/20 03:14:16;;;;;;;11.93;5.32;;;9.80;99.90;;;;;;4973510;28;20073;-85
2024/03/20 03:16:42;;;;;;;12.65;5.57;;;9.80;99.90;;;;;;4962730;28;20078;-86
2024/03/20 03:19:09;;;;;;;14.50;5.82;;;9.80;99.90;;;;;;4974938;28;20053;-86
2024/03/20 03:21:36;;;;;;;12.02;5.03;;;9.80;99.90;;;;;;4974679;28;20073;-85
2024/03/20 03:24:04;;;;;;;13.05;5.10;;;9.80;99.90;;;;;;4972782;28;20095;-85
2024/03/20 03:26:31;;;;;;;12.25;5.43;;;9.80;99.90;;;;;;4964050;28;20031;-85
2024/03/20 03:28:58;;;;;;;14.63;5.70;;;9.70;99.90;;;;;;4974554;28;20066;-85
2024/03/20 03:31:26;;;;;;;10.63;5.20;;;9.70;99.90;;;;;;4972773;28;20117;-86
2024/03/20 03:33:52;;;;;;;12.30;5.07;;;9.70;99.90;;;;;;4994072;28;20058;-85
2024/03/20 03:36:19;;;;;;;13.00;5.68;;;10.40;99.90;;;;;;4978089;28;20076;-86
2024/03/20 03:38:46;;;;;;;10.63;4.75;;;9.70;99.90;;;;;;4977448;28;20515;-85
2024/03/20 03:41:12;;;;;;;13.13;5.53;;;9.70;99.90;;;;;;4977692;28;20042;-85
2024/03/20 03:43:39;;;;;;;12.00;5.32;;;9.90;99.90;;;;;;4977448;28;20174;-86
2024/03/20 03:46:07;;;;;;;13.70;5.60;;;9.70;99.90;;;;;;4973142;28;20042;-84
2024/03/20 03:48:34;;;;;;;12.15;5.35;;;10.50;99.90;;;;;;4991782;28;20114;-85
2024/03/20 03:51:01;;;;;;;13.68;5.57;;;9.60;99.90;;;;;;4966287;29;20118;-86
2024/03/20 03:53:28;;;;;;;11.60;5.18;;;9.70;99.90;;;;;;4971145;29;20122;-85
2024/03/20 03:55:55;;;;;;;10.82;5.35;;;9.70;99.90;;;;;;4977254;28;20122;-85
2024/03/20 03:58:21;;;;;;;12.20;5.40;;;9.60;99.90;;;;;;4977506;28;20078;-85
2024/03/20 04:00:48;;;;;;;12.88;5.15;;;9.70;99.90;;;;;;4970454;29;20031;-86
2024/03/20 04:03:14;;;;;;;13.57;5.75;;;9.60;99.90;;;;;;4975025;28;20098;-85
2024/03/20 04:05:41;;;;;;;12.30;5.15;;;9.90;99.90;;;;;;4969926;29;20039;-85
2024/03/20 04:08:08;;;;;;;12.23;5.90;;;9.70;99.90;;;;;;4991165;28;20051;-85
2024/03/20 04:10:36;;;;;;;15.73;5.53;;;9.80;99.90;;;;;;4966505;29;20090;-85
2024/03/20 04:13:03;;;;;;;11.63;5.85;;;9.60;99.90;;;;;;4971149;28;20031;-85
2024/03/20 04:15:30;;;;;;;13.68;6.20;;;9.50;99.90;;;;;;4976713;28;20046;-85
2024/03/20 04:17:58;;;;;;;12.05;5.40;;;9.50;99.90;;;;;;4965091;28;20437;-85
2024/03/20 04:20:27;;;;;;;14.60;5.75;;;9.50;99.90;;;;;;4976996;28;20078;-85
2024/03/20 04:22:54;;;;;;;9.35;5.40;;;9.50;99.90;;;;;;4971422;28;20125;-85
2024/03/20 04:25:20;;;;;;;11.70;6.15;;;9.50;99.90;;;;;;4972599;28;20039;-85
2024/03/20 04:27:47;;;;;;;10.63;5.60;;;9.50;99.90;;;;;;4986961;29;20431;-85
2024/03/20 04:30:15;;;;;;;15.45;6.38;;;9.50;99.90;;;;;;4970198;28;20118;-85
2024/03/20 04:32:41;;;;;;;15.95;6.60;;;9.40;99.90;;;;;;4976469;28;20068;-85
2024/03/20 04:35:08;;;;;;;15.75;6.85;;;9.40;99.90;;;;;;4975121;28;20078;-86
2024/03/20 04:37:35;;;;;;;15.82;6.50;;;9.40;99.90;;;;;;4992744;28;20070;-85
2024/03/20 04:40:03;;;;;;;13.10;6.28;;;9.50;99.90;;;;;;4974213;28;20093;-85
2024/03/20 04:42:30;;;;;;;12.00;6.65;;;9.40;99.90;;;;;;4975103;28;20043;-85
2024/03/20 04:44:56;;;;;;;16.35;6.65;;;9.60;99.90;;;;;;4976207;28;20089;-85
2024/03/20 04:47:26;;;;;;;19.92;6.93;;;9.40;99.90;;;;;;4976518;28;20061;-85
2024/03/20 04:49:52;;;;;;;13.93;6.95;;;9.40;99.90;;;;;;4965257;29;20047;-84
2024/03/20 04:52:19;;;;;;;15.48;6.57;;;10.00;99.90;;;;;;4973228;29;20043;-85
2024/03/20 04:54:46;;;;;;;15.90;6.35;;;9.30;99.90;;;;;;4973489;28;20041;-85
2024/03/20 04:57:13;;;;;;;13.63;7.82;;;9.50;99.90;;;;;;4966593;29;20069;-85
2024/03/20 04:59:40;;;;;;;12.85;6.57;;;10.00;99.90;;;;;;4975578;28;20628;-85
2024/03/20 05:02:06;;;;;;;15.73;6.55;;;9.70;99.90;;;;;;4975838;28;20165;-85
2024/03/20 05:04:33;;;;;;;13.45;6.63;;;9.70;99.90;;;;;;4966690;29;20126;-85
2024/03/20 05:07:00;;;;;;;17.38;6.65;;;9.30;99.90;;;;;;4966057;28;20170;-85
2024/03/20 05:09:26;;;;;;;18.10;6.10;;;9.30;99.90;;;;;;4971386;29;20135;-85
2024/03/20 05:11:53;;;;;;;20.20;7.38;;;9.30;99.90;;;;;;4972896;29;20035;-85
2024/03/20 05:14:19;;;;;;;15.23;6.78;;;9.30;99.90;;;;;;4971603;28;20062;-85
2024/03/20 05:16:46;;;;;;;15.00;6.65;;;9.30;99.90;;;;;;4969773;28;20511;-85
2024/03/20 05:19:13;;;;;;;16.30;6.63;;;9.30;99.90;;;;;;4976031;28;20043;-85
2024/03/20 05:21:39;;;;;;;14.88;7.18;;;9.60;99.90;;;;;;4972201;29;20043;-85
2024/03/20 05:24:06;;;;;;;12.73;6.85;;;10.00;99.90;;;;;;4986674;28;20035;-85
2024/03/20 05:26:33;;;;;;;15.63;7.07;;;9.30;99.90;;;;;;4967145;29;20055;-85
2024/03/20 05:29:00;;;;;;;16.65;7.55;;;9.20;99.90;;;;;;4969120;28;20964;-85
2024/03/20 05:31:30;;;;;;;15.73;6.57;;;9.20;99.90;;;;;;4971179;28;20043;-85
2024/03/20 05:33:57;;;;;;;17.23;7.00;;;9.20;99.90;;;;;;4978183;28;20089;-85
2024/03/20 05:36:24;;;;;;;13.45;6.82;;;9.10;99.90;;;;;;4973882;28;20047;-85
2024/03/20 05:38:50;;;;;;;15.10;6.97;;;9.50;99.90;;;;;;4974600;28;20043;-85
2024/03/20 05:41:17;;;;;;;15.60;6.40;;;9.60;99.90;;;;;;4958604;28;20043;-85
2024/03/20 05:43:46;;;;;;;15.10;7.05;;;9.00;99.90;;;;;;4968598;28;20035;-85
2024/03/20 05:46:13;;;;;;;14.00;6.80;;;9.40;99.90;;;;;;4964153;28;20051;-85
2024/03/20 05:48:42;;;;;;;12.40;6.53;;;9.40;99.90;;;;;;4987650;28;20041;-85
2024/03/20 05:51:09;;;;;;;14.25;6.80;;;9.60;99.90;;;;;;4975883;28;20035;-85
2024/03/20 05:53:35;;;;;;;18.58;7.28;;;9.00;99.90;;;;;;4974664;28;20536;-85
2024/03/20 05:56:02;;;;;;;14.80;6.43;;;9.00;99.90;;;;;;4975322;28;20054;-85
2024/03/20 05:58:29;;;;;;;12.35;6.63;;;9.00;99.90;;;;;;4991465;28;20039;-86
2024/03/20 06:00:55;;;;;;;10.90;6.25;;;9.00;99.90;;;;;;4966281;28;20042;-85
2024/03/20 06:03:22;;;;;;;15.77;6.68;;;9.00;99.90;;;;;;4981251;28;20043;-85
2024/03/20 06:05:49;;;;;;;19.85;7.35;;;9.00;99.90;;;;;;4970664;28;20046;-85
2024/03/20 06:08:15;;;;;;;12.55;6.75;;;9.00;99.90;;;;;;4974197;28;20051;-85
2024/03/20 06:10:43;;;;;;;18.92;6.78;;;9.00;99.90;;;;;;4965211;29;20051;-85
2024/03/20 06:13:09;;;;;;;12.50;6.93;;;9.10;99.90;;;;;;4970210;28;20050;-85
2024/03/20 06:15:36;;;;;;;14.45;7.30;;;9.20;99.90;;;;;;4971429;29;20420;-85
2024/03/20 06:18:03;;;;;;;14.25;7.05;;;9.10;99.90;;;;;;4985943;29;20054;-85
2024/03/20 06:20:31;;;;;;;13.00;6.15;;;9.20;99.90;;;;;;4970710;28;20081;-85
2024/03/20 06:22:58;;;;;;;19.73;7.30;;;9.40;99.90;;;;;;4974778;28;20066;-85
2024/03/20 06:25:24;;;;;;;15.73;6.90;;;9.30;99.90;;;;;;4972057;28;20102;-85
2024/03/20 06:27:51;;;;;;;14.57;7.38;;;9.20;99.90;;;;;;4974855;28;20070;-85
2024/03/20 06:30:18;;;;;;;15.23;6.63;;;9.30;99.90;;;;;;4976378;28;20480;-85
2024/03/20 06:32:46;;;;;;;16.13;6.80;;;9.30;99.90;;;;;;4990800;28;20081;-85
2024/03/20 06:35:15;;;;;;;15.77;6.78;;;9.40;99.90;;;;;;4971883;28;20130;-85
2024/03/20 06:37:42;;;;;;;13.02;7.28;;;9.50;99.90;;;;;;4976464;28;20255;-85
2024/03/20 06:40:12;;;;;;;16.20;7.07;;;9.60;99.90;;;;;;4970709;28;20090;-85
2024/03/20 06:42:39;;;;;;;13.55;7.25;;;9.70;99.90;;;;;;4970638;28;20038;-85
2024/03/20 06:45:06;;;;;;;18.35;7.05;;;9.70;99.90;;;;;;4974713;28;20047;-85
2024/03/20 06:47:33;;;;;;;13.02;6.53;;;9.80;99.90;;;;;;4966409;29;20527;-85
2024/03/20 06:50:01;;;;;;;11.68;6.72;;;9.90;99.90;;;;;;4967656;28;20062;-86
2024/03/20 06:52:28;;;;;;;15.20;7.28;;;9.90;99.90;;;;;;4959776;29;20043;-85
2024/03/20 06:54:54;;;;;;;13.35;6.47;;;10.00;99.90;;;;;;4981257;28;20554;-85
2024/03/20 06:57:23;;;;;;;16.52;7.30;;;10.00;99.90;;;;;;4970777;28;20043;-86
2024/03/20 06:59:49;;;;;;;16.77;6.85;;;10.00;99.90;;;;;;4974296;28;20038;-85
2024/03/20 07:02:16;;;;;;;16.27;6.45;;;10.10;99.90;;;;;;4966059;29;20389;-85
2024/03/20 07:04:43;;;;;;;14.98;7.00;;;10.10;99.90;;;;;;4973008;28;20129;-85
2024/03/20 07:07:11;;;;;;;13.65;7.00;;;10.10;99.90;;;;;;4976644;28;20042;-85
2024/03/20 07:09:38;;;;;;;16.58;7.10;;;10.20;99.90;;;;;;4978375;28;20527;-85
2024/03/20 07:12:05;;;;;;;15.38;6.57;;;10.50;99.90;;;;;;4986605;28;20048;-85
2024/03/20 07:14:32;;;;;;;16.73;6.50;;;10.30;99.90;;;;;;4967355;28;20058;-85
2024/03/20 07:16:59;;;;;;;18.45;6.72;;;10.30;99.90;;;;;;4968263;28;20508;-85
2024/03/20 07:19:26;;;;;;;20.67;6.30;;;10.40;99.90;;;;;;4972777;28;20126;-85
2024/03/20 07:21:53;;;;;;;11.75;5.72;;;10.40;99.90;;;;;;4980449;29;20456;-85
2024/03/20 07:24:20;;;;;;;11.90;6.18;;;10.40;99.90;;;;;;4971950;28;20043;-85
2024/03/20 07:26:47;;;;;;;11.70;5.88;;;10.60;99.90;;;;;;4986820;28;20039;-85
2024/03/20 07:29:14;;;;;;;11.38;6.10;;;10.70;99.90;;;;;;4993616;28;20484;-85
2024/03/20 07:31:40;;;;;;;17.73;6.55;;;10.50;99.90;;;;;;4956866;29;20042;-86
2024/03/20 07:34:07;;;;;;;14.75;6.32;;;10.50;99.90;;;;;;4970277;28;20085;-85
2024/03/20 07:36:34;;;;;;;13.77;6.45;;;11.20;99.90;;;;;;4967789;28;20035;-85
2024/03/20 07:39:07;;;;;;;13.10;6.07;;;10.30;99.90;;;;;;4963013;28;20047;-85
2024/03/20 07:41:34;;;;;;;13.38;6.55;;;10.90;99.90;;;;;;4971797;28;20795;-85
2024/03/20 07:44:00;;;;;;;16.40;6.45;;;10.60;99.90;;;;;;4977206;28;20126;-85
2024/03/20 07:46:27;;;;;;;14.45;6.70;;;11.00;99.90;;;;;;4974755;28;20054;-85
2024/03/20 07:48:54;;;;;;;16.42;7.00;;;10.70;99.90;;;;;;4976238;28;20122;-85
2024/03/20 07:51:20;;;;;;;16.05;6.95;;;11.10;99.90;;;;;;4977519;28;20098;-85
2024/03/20 07:53:47;;;;;;;14.65;6.55;;;10.80;99.90;;;;;;4976093;28;20034;-85
2024/03/20 07:56:17;;;;;;;12.13;6.63;;;10.80;99.90;;;;;;4969902;29;20071;-85
2024/03/20 07:58:44;;;;;;;16.08;6.53;;;10.90;99.90;;;;;;4990684;28;20043;-86
2024/03/20 08:01:11;;;;;;;14.27;6.63;;;10.90;99.90;;;;;;4977063;28;20042;-86
2024/03/20 08:03:43;;;;;;;17.48;7.00;;;10.90;99.90;;;;;;4962200;28;20129;-85
2024/03/20 08:06:10;;;;;;;14.23;6.85;;;11.00;99.90;;;;;;4972184;28;20378;-85
2024/03/20 08:08:37;;;;;;;15.85;6.63;;;11.00;99.90;;;;;;4975546;28;20105;-85
2024/03/20 08:11:04;;;;;;;15.82;7.18;;;11.00;99.90;;;;;;4992040;28;20039;-85
2024/03/20 08:13:30;;;;;;;15.52;6.95;;;11.00;99.90;;;;;;4974564;28;20062;-85
2024/03/20 08:15:57;;;;;;;16.60;6.80;;;11.00;99.90;;;;;;4975792;28;20039;-85
2024/03/20 08:18:25;;;;;;;20.45;6.53;;;11.00;99.90;;;;;;4973656;28;20408;-85
2024/03/20 08:20:52;;;;;;;18.92;6.60;;;11.00;99.90;;;;;;4970552;29;20038;-85
2024/03/20 08:23:19;;;;;;;16.23;7.25;;;11.10;99.90;;;;;;4975310;28;20043;-85
2024/03/20 08:25:45;;;;;;;15.35;7.40;;;11.10;99.90;;;;;;4972170;28;20046;-86
2024/03/20 08:28:12;;;;;;;16.85;6.68;;;11.20;99.90;;;;;;4965548;29;20175;-85
2024/03/20 08:30:42;;;;;;;14.50;6.57;;;11.20;99.90;;;;;;4970887;28;20039;-85
2024/03/20 08:33:09;;;;;;;20.75;6.93;;;11.30;99.90;;;;;;4964298;28;20428;-86
2024/03/20 08:35:36;;;;;;;14.57;7.45;;;11.50;99.90;;;;;;4968145;29;20035;-84
2024/03/20 08:38:02;;;;;;;11.90;6.10;;;11.60;99.90;;;;;;4973842;28;20117;-86
2024/03/20 08:40:30;;;;;;;15.65;6.57;;;11.70;99.90;;;;;;4970995;28;20163;-86
2024/03/20 08:42:56;;;;;;;15.93;6.95;;;12.60;99.90;;;;;;4967727;29;20122;-86
2024/03/20 08:45:23;;;;;;;12.27;6.20;;;11.90;99.90;;;;;;4960689;28;20066;-86
2024/03/20 08:47:51;;;;;;;17.70;6.18;;;12.00;99.90;;;;;;4982727;28;20492;-85
2024/03/20 08:50:17;;;;;;;15.60;6.90;;;12.20;99.90;;;;;;4967891;28;20053;-87
2024/03/20 08:52:45;;;;;;;14.80;6.55;;;12.10;99.90;;;;;;4978139;28;20121;-87
2024/03/20 08:55:12;;;;;;;14.77;6.75;;;12.20;99.90;;;;;;4964127;29;20453;-89
2024/03/20 08:57:39;;;;;;;12.43;5.90;;;12.30;99.90;;;;;;4988224;28;20039;-90
2024/03/20 09:00:11;;;;;;;14.70;6.57;;;12.30;99.90;;;;;;4966840;29;20035;-90
2024/03/20 09:02:38;;;;;;;13.18;5.72;;;12.40;99.90;;;;;;4972514;28;20085;-89
2024/03/20 09:05:05;;;;;;;13.65;6.45;;;12.40;99.90;;;;;;4968936;29;20445;-90
2024/03/20 09:07:31;;;;;;;14.27;6.38;;;12.50;99.90;;;;;;4975198;28;20049;-90
2024/03/20 09:09:58;;;;;;;14.38;6.05;;;12.60;99.90;;;;;;4973990;29;20130;-90
2024/03/20 09:12:25;;;;;;;17.95;5.72;;;12.70;99.90;;;;;;4989495;28;20071;-90
2024/03/20 09:14:51;;;;;;;14.80;5.95;;;12.80;99.90;;;;;;4967524;28;20043;-90
2024/03/20 09:17:18;;;;;;;13.65;5.85;;;12.80;99.90;;;;;;4970023;28;20073;-90
2024/03/20 09:19:47;;;;;;;14.15;5.55;;;12.90;99.90;;;;;;4981992;28;20047;-90
2024/03/20 09:22:14;;;;;;;20.33;5.85;;;12.90;99.90;;;;;;4973723;28;20558;-90
2024/03/20 09:24:41;;;;;;;13.32;5.18;;;13.10;99.90;;;;;;4971756;29;20031;-90
2024/03/20 09:27:07;;;;;;;11.68;5.20;;;13.20;99.90;;;;;;4971458;28;20039;-90
2024/03/20 09:29:34;;;;;;;16.05;5.70;;;13.20;99.90;;;;;;4958429;29;20046;-90
2024/03/20 09:32:01;;;;;;;9.85;5.32;;;13.30;99.90;;;;;;4960956;28;20094;-90
2024/03/20 09:34:27;;;;;;;12.52;5.38;;;13.30;99.90;;;;;;4973543;28;20039;-90
2024/03/20 09:36:55;;;;;;;14.10;6.00;;;13.40;99.90;;;;;;4976512;28;20097;-89
2024/03/20 09:39:23;;;;;;;9.82;5.43;;;13.40;99.90;;;;;;4973027;28;20050;-90
2024/03/20 09:41:49;;;;;;;15.48;5.60;;;13.50;99.90;;;;;;4969606;29;20173;-90
2024/03/20 09:44:19;;;;;;;11.27;5.50;;;13.60;99.90;;;;;;4967754;29;20047;-90
2024/03/20 09:46:47;;;;;;;17.33;5.38;;;13.50;99.90;;;;;;4972189;29;20489;-90
2024/03/20 09:49:15;;;;;;;12.57;4.88;;;13.60;99.90;;;;;;4957749;29;20058;-90
2024/03/20 09:51:42;;;;;;;11.32;5.45;;;13.60;99.90;;;;;;4960767;29;20058;-90
2024/03/20 09:54:08;;;;;;;15.82;5.43;;;13.60;99.90;;;;;;4968927;28;20039;-90
2024/03/20 09:56:36;;;;;;;13.23;5.30;;;13.70;99.90;;;;;;4957301;28;20039;-90
2024/03/20 09:59:07;;;;;;;15.00;6.00;;;13.80;99.90;;;;;;4968563;28;20047;-90
2024/03/20 10:01:33;;;;;;;16.13;6.07;;;13.80;99.90;;;;;;4976442;28;20038;-89
2024/03/20 10:04:06;;;;;;;12.45;5.85;;;13.80;99.90;;;;;;4974005;28;20034;-91
2024/03/20 10:06:35;;;;;;;16.98;6.00;;;13.80;99.90;;;;;;4963267;29;20083;-90
2024/03/20 10:09:03;;;;;;;12.00;5.82;;;13.90;99.90;;;;;;4967591;28;20051;-89
2024/03/20 10:11:30;;;;;;;15.50;6.55;;;14.00;99.90;;;;;;4971389;28;20039;-90
2024/03/20 10:13:57;;;;;;;17.35;6.25;;;14.10;99.90;;;;;;4976035;28;20045;-90
2024/03/20 10:16:24;;;;;;;13.10;6.32;;;14.10;99.90;;;;;;4967456;29;20049;-89
2024/03/20 10:18:51;;;;;;;15.35;6.50;;;14.20;99.90;;;;;;4966967;28;20141;-90
2024/03/20 10:21:17;;;;;;;13.88;6.18;;;14.20;99.90;;;;;;4992612;28;20038;-90
2024/03/20 10:23:45;;;;;;;13.15;6.10;;;14.20;99.90;;;;;;4975273;28;20038;-89
2024/03/20 10:26:15;;;;;;;13.50;6.20;;;14.30;99.90;;;;;;4960653;28;20039;-91
2024/03/20 10:28:46;;;;;;;14.00;5.72;;;14.30;99.90;;;;;;4980044;28;20035;-91
2024/03/20 10:31:13;;;;;;;11.60;5.95;;;14.30;99.90;;;;;;4976366;28;20121;-91
2024/03/20 10:33:44;;;;;;;11.88;5.80;;;14.30;99.90;;;;;;4975096;28;20122;-89
2024/03/20 10:36:17;;;;;;;16.58;5.95;;;14.40;99.90;;;;;;4973777;28;20400;-91
2024/03/20 10:38:47;;;;;;;12.48;5.57;;;14.30;99.90;;;;;;4961294;28;20090;-91
2024/03/20 10:41:15;;;;;;;17.73;5.80;;;14.30;99.90;;;;;;4976669;29;20082;-91
2024/03/20 10:43:42;;;;;;;13.98;6.22;;;14.30;99.90;;;;;;4976175;28;20035;-90
2024/03/20 10:46:14;;;;;;;15.88;6.22;;;14.30;99.90;;;;;;4982788;28;20063;-90
2024/03/20 10:48:41;;;;;;;14.32;6.00;;;14.40;99.90;;;;;;4973931;28;20510;-89
2024/03/20 10:51:14;;;;;;;12.93;6.13;;;14.40;99.90;;;;;;4977446;28;20412;-90
2024/03/20 10:53:41;;;;;;;15.73;5.82;;;14.40;99.90;;;;;;4976901;28;20122;-90
2024/03/20 10:56:17;;;;;;;15.52;5.82;;;14.50;99.90;;;;;;4976501;28;20077;-89
2024/03/20 10:58:59;;;;;;;18.27;6.18;;;14.60;99.90;;;;;;4976899;28;20050;-90
2024/03/20 11:01:26;;;;;;;13.52;5.47;;;14.60;99.90;;;;;;4982677;28;20035;-89
2024/03/20 11:03:56;;;;;;;15.00;5.32;;;14.70;99.90;;;;;;4991851;28;20580;-89
2024/03/20 11:06:27;;;;;;;13.93;5.28;;;14.70;99.90;;;;;;4971962;28;20039;-90
2024/03/20 11:08:59;;;;;;;13.05;5.68;;;14.90;99.90;;;;;;4992383;28;20047;-89
2024/03/20 11:11:26;;;;;;;13.80;5.55;;;14.70;99.90;;;;;;4974455;28;20034;-89
2024/03/20 11:13:53;;;;;;;15.13;5.75;;;14.80;99.90;;;;;;4995402;28;20097;-90
2024/03/20 11:16:21;;;;;;;14.02;5.78;;;14.80;99.90;;;;;;4978790;28;20440;-89
2024/03/20 11:18:56;;;;;;;16.55;5.80;;;14.80;99.90;;;;;;4976049;29;20039;-90
2024/03/20 11:21:24;;;;;;;16.35;6.03;;;14.90;99.90;;;;;;4966226;28;20070;-87
2024/03/20 11:23:55;;;;;;;13.40;5.97;;;15.00;99.90;;;;;;4968224;29;20046;-89
2024/03/20 11:26:22;;;;;;;16.35;5.80;;;15.00;99.90;;;;;;4975584;28;20043;-88
2024/03/20 11:28:49;;;;;;;13.65;5.38;;;15.00;99.90;;;;;;4977311;28;20512;-89
2024/03/20 11:31:16;;;;;;;12.95;5.55;;;15.00;99.90;;;;;;4979004;28;20489;-89
2024/03/20 11:33:46;;;;;;;13.98;5.22;;;15.00;99.90;;;;;;4978273;28;20117;-89
2024/03/20 11:36:22;;;;;;;10.82;4.75;;;15.10;99.90;;;;;;4967097;28;20114;-88
2024/03/20 11:38:49;;;;;;;14.55;4.95;;;15.10;99.90;;;;;;4972538;28;20073;-89
2024/03/20 11:41:17;;;;;;;11.38;5.35;;;15.10;99.90;;;;;;4975048;28;20066;-89
2024/03/20 11:43:47;;;;;;;14.23;5.25;;;15.10;99.90;;;;;;4972950;28;20117;-89
2024/03/20 11:46:20;;;;;;;14.13;5.50;;;15.10;99.90;;;;;;4967207;28;20129;-89
2024/03/20 11:48:52;;;;;;;14.32;5.65;;;15.30;99.90;;;;;;4973470;28;20057;-89
2024/03/20 11:51:22;;;;;;;10.02;5.80;;;15.30;99.90;;;;;;4970463;28;20035;-89
2024/03/20 11:53:49;;;;;;;12.93;6.28;;;15.30;99.90;;;;;;4979236;28;20042;-89
2024/03/20 11:56:21;;;;;;;19.05;6.53;;;15.30;99.90;;;;;;4979930;28;20050;-89
2024/03/20 11:58:50;;;;;;;13.95;6.22;;;15.30;99.90;;;;;;4984650;28;20137;-89
2024/03/20 12:01:18;;;;;;;13.45;6.13;;;15.30;99.90;;;;;;4979140;28;20097;-89
2024/03/20 12:03:47;;;;;;;13.20;6.75;;;15.40;99.90;;;;;;4973773;28;20118;-89
2024/03/20 12:06:16;;;;;;;13.15;6.68;;;15.50;99.90;;;;;;4970462;28;20039;-89
2024/03/20 12:08:44;;;;;;;13.02;6.53;;;15.50;99.90;;;;;;4976107;28;20063;-89
2024/03/20 12:11:15;;;;;;;13.75;6.13;;;15.50;99.90;;;;;;4966316;28;20044;-89
2024/03/20 12:13:41;;;;;;;15.50;6.90;;;15.60;99.90;;;;;;4978337;28;20542;-89
2024/03/20 12:16:08;;;;;;;14.80;7.05;;;15.70;99.90;;;;;;4970365;28;20031;-89
2024/03/20 12:18:35;;;;;;;13.05;7.15;;;15.70;99.90;;;;;;4975953;28;20089;-89
2024/03/20 12:21:05;;;;;;;13.55;6.65;;;15.60;99.90;;;;;;4969843;28;20067;-89
2024/03/20 12:23:32;;;;;;;12.18;6.80;;;15.60;99.90;;;;;;4972092;28;20097;-89
2024/03/20 12:25:58;;;;;;;16.73;6.57;;;15.60;99.90;;;;;;4975917;28;20436;-89
2024/03/20 12:28:26;;;;;;;14.77;7.22;;;15.60;99.90;;;;;;4972179;28;20043;-89
2024/03/20 12:30:53;;;;;;;13.55;6.32;;;15.60;99.90;;;;;;4968418;28;20051;-89
2024/03/20 12:33:20;;;;;;;11.15;6.88;;;15.60;99.90;;;;;;4971903;28;20042;-89
2024/03/20 12:35:47;;;;;;;13.13;7.30;;;15.50;99.90;;;;;;4966957;28;20030;-89
2024/03/20 12:38:14;;;;;;;18.98;7.63;;;15.50;99.90;;;;;;4971599;28;20047;-89
2024/03/20 12:40:42;;;;;;;16.73;7.45;;;15.50;99.90;;;;;;4964840;28;20050;-89
2024/03/20 12:43:10;;;;;;;17.90;7.55;;;15.40;99.90;;;;;;4967236;28;20054;-89